Time;durP1;ratioP1;P1;durP2;ratioP2;P2;SDS_P1;SDS_P2;PMS_P1;PMS_P2;Temp;Humidity;BMP_temperature;BMP_pressure;BME280_temperature;BME280_humidity;BME280_pressure;Samples;Min_cycle;Max_cycle;Signal;HPM_P1;HPM_P2
2021/01/31 00:02:49;;;;;;;136.98;111.70;;;;;;;6.50;95.68;98591.56;5074016;28;20037;-77
2021/01/31 00:05:55;;;;;;;131.13;109.30;;;;;;;6.52;96.10;98581.59;5074022;28;20050;-78
2021/01/31 00:09:00;;;;;;;124.55;105.03;;;;;;;6.54;96.13;98579.63;5074490;28;20391;-73
2021/01/31 00:12:04;;;;;;;124.38;107.80;;;;;;;6.49;95.61;98571.25;5074580;28;20044;-78
2021/01/31 00:15:12;;;;;;;127.93;106.88;;;;;;;6.46;95.73;98569.75;5074815;28;20468;-78
2021/01/31 00:18:21;;;;;;;127.28;109.55;;;;;;;6.39;96.09;98568.66;5074572;28;20037;-73
2021/01/31 00:21:25;;;;;;;131.57;107.78;;;;;;;6.38;96.05;98566.16;5073744;28;20048;-73
2021/01/31 00:24:30;;;;;;;131.40;111.85;;;;;;;6.37;96.25;98565.31;5074182;28;20044;-73
2021/01/31 00:27:35;;;;;;;129.55;110.90;;;;;;;6.38;96.30;98566.16;5085587;28;20383;-80
2021/01/31 00:30:42;;;;;;;128.77;109.70;;;;;;;6.41;96.35;98565.84;5074681;28;20044;-79
2021/01/31 00:33:46;;;;;;;122.07;107.85;;;;;;;6.40;96.56;98572.16;5074321;28;20044;-78
2021/01/31 00:36:51;;;;;;;118.35;104.25;;;;;;;6.40;96.57;98569.50;5073772;28;20041;-77
2021/01/31 00:39:55;;;;;;;117.53;103.07;;;;;;;6.41;96.35;98571.19;5074528;28;20052;-77
2021/01/31 00:43:00;;;;;;;;;;;;;;;6.37;96.49;98575.16;5074928;28;20049;-76
2021/01/31 00:46:04;;;;;;;115.28;99.95;;;;;;;6.42;96.17;98568.34;5096314;28;19917;-74
2021/01/31 00:49:09;;;;;;;114.05;100.35;;;;;;;6.40;96.27;98564.16;5073355;28;20051;-75
2021/01/31 00:52:14;;;;;;;111.30;98.38;;;;;;;6.38;96.18;98561.66;5072675;28;20048;-78
2021/01/31 00:55:19;;;;;;;112.93;98.60;;;;;;;6.38;96.09;98564.31;5073343;28;20051;-77
2021/01/31 00:58:23;;;;;;;114.63;97.28;;;;;;;6.33;96.33;98561.28;5073310;28;20056;-79
2021/01/31 01:01:28;;;;;;;130.27;105.80;;;;;;;6.22;96.18;98563.34;5073035;28;20068;-74
2021/01/31 01:04:33;;;;;;;124.50;102.78;;;;;;;6.22;96.54;98563.34;5073250;28;20040;-77
2021/01/31 01:07:44;;;;;;;123.47;103.32;;;;;;;6.25;96.67;98568.34;5091128;28;20391;-77
2021/01/31 01:10:48;;;;;;;119.72;101.28;;;;;;;6.26;96.76;98568.22;5073999;28;20040;-75
2021/01/31 01:13:52;;;;;;;120.57;99.35;;;;;;;6.31;96.80;98567.75;5073701;28;20403;-76
2021/01/31 01:17:01;;;;;;;115.43;98.57;;;;;;;6.33;96.50;98563.09;5073764;28;20486;-76
2021/01/31 01:20:07;;;;;;;117.25;97.28;;;;;;;6.37;96.88;98569.81;5079995;28;20047;-75
2021/01/31 01:23:11;;;;;;;118.90;99.68;;;;;;;6.34;96.52;98564.78;5085769;28;20048;-77
2021/01/31 01:26:15;;;;;;;125.20;101.25;;;;;;;6.32;96.67;98559.59;5072959;28;20040;-79
2021/01/31 01:29:20;;;;;;;118.20;100.85;;;;;;;6.34;96.66;98562.13;5076802;28;20044;-79
2021/01/31 01:32:24;;;;;;;125.97;102.20;;;;;;;6.28;96.56;98560.06;5090400;28;20480;-77
2021/01/31 01:35:29;;;;;;;131.43;103.65;;;;;;;6.30;96.64;98555.41;5073419;28;20051;-78
2021/01/31 01:38:33;;;;;;;121.00;100.07;;;;;;;6.29;96.53;98546.59;5073424;28;20033;-80
2021/01/31 01:41:44;;;;;;;132.07;103.90;;;;;;;6.28;96.56;98547.56;5073450;28;20396;-72
2021/01/31 01:44:48;;;;;;;126.82;102.35;;;;;;;6.30;96.74;98537.59;5093909;28;20048;-75
2021/01/31 01:47:55;;;;;;;125.15;101.97;;;;;;;6.35;96.63;98537.13;5092857;28;20040;-71
2021/01/31 01:50:59;;;;;;;125.07;98.25;;;;;;;6.36;96.82;98530.81;5085580;28;20048;-77
2021/01/31 01:54:08;;;;;;;124.40;100.10;;;;;;;6.35;96.42;98531.81;5073524;28;20055;-72
2021/01/31 01:57:18;;;;;;;121.80;99.15;;;;;;;6.30;96.35;98528.75;5073795;28;20048;-79
2021/01/31 02:00:23;;;;;;;127.85;102.32;;;;;;;6.31;96.21;98528.63;5073515;28;20063;-75
2021/01/31 02:03:33;;;;;;;125.13;101.97;;;;;;;6.26;96.60;98522.06;5078515;28;20044;-74
2021/01/31 02:06:37;;;;;;;130.15;102.82;;;;;;;6.26;96.38;98514.09;5089472;28;20052;-73
2021/01/31 02:09:46;;;;;;;119.55;99.65;;;;;;;6.27;96.37;98516.56;5091684;28;20044;-77
2021/01/31 02:12:57;;;;;;;123.00;101.38;;;;;;;6.29;96.47;98516.44;5077121;28;20060;-76
2021/01/31 02:16:05;;;;;;;123.57;100.85;;;;;;;6.18;96.53;98509.50;5076964;28;20037;-76
2021/01/31 02:19:43;;;;;;;120.90;101.15;;;;;;;6.20;96.76;98518.19;5097619;28;20040;-78
2021/01/31 02:22:59;;;;;;;121.03;101.72;;;;;;;6.21;96.61;98517.22;5076869;28;20044;-76
2021/01/31 02:26:31;;;;;;;120.78;101.28;;;;;;;6.29;96.77;98521.78;5077045;28;20044;-71
2021/01/31 02:29:47;;;;;;;118.97;98.38;;;;;;;6.32;96.82;98526.81;5091321;28;20041;-75
2021/01/31 02:33:10;;;;;;;114.90;97.22;;;;;;;6.34;96.65;98525.66;5075809;28;20392;-72
2021/01/31 02:36:30;;;;;;;112.00;97.22;;;;;;;6.32;96.51;98516.97;5076196;28;20067;-75
2021/01/31 02:40:10;;;;;;;115.00;99.53;;;;;;;6.29;96.39;98524.44;5076298;28;20067;-73
2021/01/31 02:43:28;;;;;;;114.40;98.35;;;;;;;6.20;96.27;98530.66;5076959;28;20051;-73
2021/01/31 02:46:53;;;;;;;117.95;99.47;;;;;;;6.24;96.60;98532.06;5085512;28;20047;-72
2021/01/31 02:50:22;;;;;;;115.45;100.68;;;;;;;6.28;96.39;98530.75;5079159;28;20399;-73
2021/01/31 02:53:33;;;;;;;118.25;101.18;;;;;;;6.23;96.64;98530.34;5076120;28;20398;-75
2021/01/31 02:56:43;;;;;;;124.57;103.82;;;;;;;6.18;96.58;98529.97;5076229;28;20044;-77
2021/01/31 02:59:53;;;;;;;122.25;103.03;;;;;;;6.14;96.67;98528.63;5076187;28;20045;-77
2021/01/31 03:03:04;;;;;;;118.20;99.47;;;;;;;6.05;96.98;98527.69;5086216;28;20044;-76
2021/01/31 03:06:16;;;;;;;109.82;96.47;;;;;;;6.05;96.99;98513.56;5095817;28;20043;-74
2021/01/31 03:09:49;;;;;;;110.20;95.18;;;;;;;6.07;97.17;98519.56;5092007;28;20063;-78
2021/01/31 03:13:27;;;;;;;106.10;94.10;;;;;;;6.03;97.12;98524.34;5076058;28;20047;-78
2021/01/31 03:16:43;;;;;;;107.28;92.53;;;;;;;6.06;97.15;98523.19;5072811;28;20044;-80
2021/01/31 03:19:59;;;;;;;101.00;88.35;;;;;;;6.12;96.88;98530.59;5073863;28;20043;-80
2021/01/31 03:23:22;;;;;;;98.03;86.57;;;;;;;6.12;97.20;98527.94;5073736;28;20051;-76
2021/01/31 03:26:51;;;;;;;99.22;87.00;;;;;;;5.99;97.28;98519.47;5073728;28;20539;-73
2021/01/31 03:29:55;;;;;;;98.63;86.95;;;;;;;6.02;97.09;98535.16;5069117;28;20502;-78
2021/01/31 03:33:23;;;;;;;98.43;86.40;;;;;;;5.96;96.92;98525.09;5073057;28;20059;-80
2021/01/31 03:36:28;;;;;;;97.97;84.82;;;;;;;6.02;97.42;98527.16;5073055;28;20447;-72
2021/01/31 03:39:35;;;;;;;101.50;86.45;;;;;;;6.01;97.28;98522.81;5073098;28;20175;-74
2021/01/31 03:42:43;;;;;;;95.45;85.10;;;;;;;6.03;96.91;98527.00;5073320;28;20040;-78
2021/01/31 03:46:08;;;;;;;95.20;84.93;;;;;;;6.04;97.16;98530.50;5073571;28;20071;-74
2021/01/31 03:49:30;;;;;;;;;;;;;;;6.03;97.22;98536.81;5073628;28;20067;-73
2021/01/31 03:52:34;;;;;;;86.85;77.28;;;;;;;6.10;97.32;98529.91;5076568;28;19916;-73
2021/01/31 03:55:41;;;;;;;90.53;80.70;;;;;;;6.07;96.92;98533.72;5079125;28;20509;-72
2021/01/31 03:58:51;;;;;;;88.82;79.07;;;;;;;6.08;96.80;98530.06;5095272;28;20047;-72
2021/01/31 04:01:57;;;;;;;89.20;79.32;;;;;;;6.07;97.04;98527.56;5085437;28;20051;-78
2021/01/31 04:05:03;;;;;;;87.05;77.65;;;;;;;6.04;96.73;98517.19;5078829;28;20055;-79
2021/01/31 04:08:11;;;;;;;90.03;80.03;;;;;;;6.00;96.83;98519.31;5085762;28;20490;-76
2021/01/31 04:11:38;;;;;;;92.05;82.07;;;;;;;5.95;96.67;98518.09;5074672;28;20048;-76
2021/01/31 04:14:59;;;;;;;91.07;80.18;;;;;;;5.95;96.90;98518.09;5074553;28;20506;-74
2021/01/31 04:18:04;;;;;;;88.78;79.13;;;;;;;5.94;96.90;98524.41;5074033;28;20044;-73
2021/01/31 04:21:08;;;;;;;94.35;82.60;;;;;;;5.82;96.87;98519.28;5074265;28;20039;-73
2021/01/31 04:24:13;;;;;;;95.47;83.13;;;;;;;5.80;96.79;98521.22;5095396;28;20527;-77
2021/01/31 04:27:17;;;;;;;98.35;85.93;;;;;;;5.80;97.34;98520.41;5081674;28;20051;-74
2021/01/31 04:30:22;;;;;;;98.13;85.43;;;;;;;5.82;97.30;98521.94;5074143;28;20044;-73
2021/01/31 04:33:26;;;;;;;94.30;83.28;;;;;;;5.83;97.33;98523.59;5075975;28;20542;-77
2021/01/31 04:36:31;;;;;;;98.95;84.15;;;;;;;5.85;97.15;98524.31;5086583;28;20047;-73
2021/01/31 04:39:35;;;;;;;97.25;83.25;;;;;;;5.86;96.98;98520.66;5074334;28;20047;-74
2021/01/31 04:42:40;;;;;;;100.97;82.93;;;;;;;5.89;96.95;98525.72;5074227;28;20071;-72
2021/01/31 04:45:46;;;;;;;94.45;82.50;;;;;;;5.87;96.76;98525.03;5074266;28;20391;-79
2021/01/31 04:49:41;;;;;;;88.10;77.43;;;;;;;5.79;96.58;98519.56;5074233;28;20052;-72
2021/01/31 04:53:06;;;;;;;91.78;79.68;;;;;;;5.82;96.87;98529.94;5067097;28;20067;-73
2021/01/31 04:56:37;;;;;;;90.43;80.50;;;;;;;5.80;97.07;98533.72;5074139;28;20047;-74
2021/01/31 04:59:47;;;;;;;92.93;80.20;;;;;;;5.80;97.05;98521.22;5074028;28;20051;-74
2021/01/31 05:02:56;;;;;;;93.80;81.63;;;;;;;5.85;96.91;98539.47;5090113;28;20502;-78
2021/01/31 05:06:11;;;;;;;86.80;77.05;;;;;;;5.90;97.02;98546.00;5094133;28;20067;-73
2021/01/31 05:09:21;;;;;;;88.03;76.05;;;;;;;5.87;96.87;98541.00;5092421;28;20071;-72
2021/01/31 05:12:39;;;;;;;87.80;76.45;;;;;;;5.93;96.81;98541.34;5073868;28;20043;-78
2021/01/31 05:16:10;;;;;;;81.82;72.75;;;;;;;5.99;96.61;98530.13;5080677;28;20043;-74
2021/01/31 05:19:16;;;;;;;82.38;72.40;;;;;;;6.02;96.32;98532.50;5073828;28;20048;-73
2021/01/31 05:22:25;;;;;;;82.03;72.95;;;;;;;6.00;96.54;98532.63;5074081;28;20503;-75
2021/01/31 05:25:34;;;;;;;81.68;71.68;;;;;;;6.04;96.16;98533.16;5073462;28;20044;-73
2021/01/31 05:28:44;;;;;;;80.50;71.70;;;;;;;5.99;95.99;98524.78;5073250;28;20075;-75
2021/01/31 05:32:03;;;;;;;81.15;72.28;;;;;;;5.95;96.21;98534.91;5073771;28;20052;-72
2021/01/31 05:35:22;;;;;;;79.00;70.40;;;;;;;5.96;95.96;98535.75;5078036;28;20111;-72
2021/01/31 05:38:44;;;;;;;76.85;67.75;;;;;;;5.96;96.00;98544.56;5073919;28;20047;-72
2021/01/31 05:41:49;;;;;;;74.88;66.60;;;;;;;5.99;96.07;98538.94;5077376;28;20404;-74
2021/01/31 05:45:07;;;;;;;71.93;64.05;;;;;;;6.01;96.22;98550.28;5077825;28;20048;-73
2021/01/31 05:48:26;;;;;;;72.97;65.10;;;;;;;6.03;96.01;98550.13;5085848;28;20048;-74
2021/01/31 05:51:34;;;;;;;73.40;65.25;;;;;;;6.03;96.08;98532.31;5096871;28;20051;-74
2021/01/31 05:54:39;;;;;;;71.28;63.58;;;;;;;6.07;95.94;98535.53;5097149;28;20051;-73
2021/01/31 05:57:44;;;;;;;70.15;62.47;;;;;;;6.08;95.77;98540.69;5086351;28;20047;-74
2021/01/31 06:01:05;;;;;;;71.43;63.72;;;;;;;6.00;95.85;98534.47;5076182;28;20498;-74
2021/01/31 06:04:14;;;;;;;68.35;60.90;;;;;;;5.98;95.69;98539.94;5077226;28;20375;-75
2021/01/31 06:07:19;;;;;;;70.68;62.95;;;;;;;5.98;95.83;98547.91;5077152;28;20048;-79
2021/01/31 06:10:23;;;;;;;70.90;60.67;;;;;;;6.00;95.76;98547.78;5095588;28;20047;-74
2021/01/31 06:13:29;;;;;;;69.70;62.13;;;;;;;5.97;95.83;98548.06;5097144;28;20055;-73
2021/01/31 06:16:35;;;;;;;68.63;60.88;;;;;;;5.96;96.09;98547.22;5095557;28;20493;-75
2021/01/31 06:19:42;;;;;;;70.40;61.63;;;;;;;6.01;96.03;98549.44;5081995;28;20071;-77
2021/01/31 06:22:50;;;;;;;67.60;59.80;;;;;;;6.04;96.10;98550.00;5097140;28;20391;-73
2021/01/31 06:25:53;;;;;;;67.15;59.65;;;;;;;6.07;96.01;98559.50;5078266;28;20056;-75
2021/01/31 06:29:06;;;;;;;68.78;58.78;;;;;;;6.09;96.07;98568.19;5083027;28;20505;-76
2021/01/31 06:32:15;;;;;;;65.93;57.60;;;;;;;6.09;96.17;98568.19;5097477;28;20047;-74
2021/01/31 06:35:22;;;;;;;66.43;57.80;;;;;;;6.10;96.07;98573.34;5096376;28;20055;-74
2021/01/31 06:38:56;;;;;;;64.20;55.70;;;;;;;6.09;96.17;98578.84;5096332;28;20051;-72
2021/01/31 06:42:25;;;;;;;63.65;56.65;;;;;;;6.10;96.25;98593.84;5077515;28;20056;-72
2021/01/31 06:45:35;;;;;;;64.05;55.72;;;;;;;6.11;95.80;98599.00;5090060;28;20171;-78
2021/01/31 06:49:00;;;;;;;61.80;54.10;;;;;;;6.12;96.21;98605.19;5091722;28;20051;-78
2021/01/31 06:52:13;;;;;;;57.20;51.08;;;;;;;6.18;96.12;98616.06;5095477;28;20047;-74
2021/01/31 06:55:49;;;;;;;57.67;51.38;;;;;;;6.09;96.07;98611.63;5096028;28;20071;-74
2021/01/31 06:59:19;;;;;;;59.38;51.88;;;;;;;6.15;96.36;98626.16;5102852;28;20505;-74
2021/01/31 07:02:50;;;;;;;56.53;50.08;;;;;;;6.11;95.81;98638.97;5084027;28;20044;-73
2021/01/31 07:06:20;;;;;;;54.35;48.45;;;;;;;6.13;96.37;98638.78;5079525;28;20043;-75
2021/01/31 07:09:54;;;;;;;55.65;48.22;;;;;;;6.13;96.49;98644.97;5076031;28;20478;-76
2021/01/31 07:13:10;;;;;;;55.75;49.70;;;;;;;6.12;96.68;98647.78;5066970;28;20048;-75
2021/01/31 07:16:17;;;;;;;52.88;47.10;;;;;;;6.12;96.50;98650.47;5077497;28;20059;-80
2021/01/31 07:19:29;;;;;;;55.42;48.28;;;;;;;6.08;96.46;98639.25;5096099;28;20051;-74
2021/01/31 07:22:37;;;;;;;57.15;50.72;;;;;;;6.13;96.77;98649.44;5096274;28;20059;-73
2021/01/31 07:26:24;;;;;;;51.75;46.10;;;;;;;6.17;96.63;98651.66;5095990;28;20051;-74
2021/01/31 07:29:47;;;;;;;49.33;43.55;;;;;;;6.21;96.63;98650.41;5093572;28;20391;-76
2021/01/31 07:33:10;;;;;;;51.37;44.63;;;;;;;6.24;96.59;98655.44;5081387;28;20493;-80
2021/01/31 07:36:32;;;;;;;47.53;41.92;;;;;;;6.24;96.53;98657.25;5075073;28;20305;-80
2021/01/31 07:39:43;;;;;;;43.83;39.13;;;;;;;6.29;96.57;98661.16;5075165;28;20047;-81
2021/01/31 07:42:53;;;;;;;42.55;38.03;;;;;;;6.30;96.33;98667.31;5091281;28;20054;-78
2021/01/31 07:46:06;;;;;;;40.20;35.85;;;;;;;6.31;96.43;98667.16;5095771;28;20055;-77
2021/01/31 07:49:11;;;;;;;40.63;36.33;;;;;;;6.27;96.15;98664.97;5074436;28;20379;-72
2021/01/31 07:52:15;;;;;;;38.65;34.60;;;;;;;6.34;96.00;98677.53;5091798;28;20051;-78
2021/01/31 07:55:35;;;;;;;35.72;32.03;;;;;;;6.33;96.07;98677.66;5094853;28;20084;-73
2021/01/31 07:58:40;;;;;;;37.45;33.47;;;;;;;6.36;95.77;98672.03;5077806;28;20051;-75
2021/01/31 08:01:51;;;;;;;35.28;31.58;;;;;;;6.39;95.89;98677.09;5080252;28;20042;-75
2021/01/31 08:04:56;;;;;;;32.30;28.90;;;;;;;6.45;96.01;98687.97;5094671;28;20051;-78
2021/01/31 08:08:08;;;;;;;31.83;28.40;;;;;;;6.48;96.03;98692.16;5087449;28;20044;-79
2021/01/31 08:11:18;;;;;;;29.92;26.77;;;;;;;6.49;96.20;98688.53;5074578;28;20048;-80
2021/01/31 08:15:00;;;;;;;30.05;26.85;;;;;;;6.46;95.67;98683.50;5074770;28;20052;-77
2021/01/31 08:18:04;;;;;;;31.17;27.98;;;;;;;6.41;96.05;98691.09;5091729;28;20047;-78
2021/01/31 08:21:08;;;;;;;30.63;27.40;;;;;;;6.37;96.12;98698.53;5094853;28;20055;-78
2021/01/31 08:24:13;;;;;;;32.20;28.63;;;;;;;6.38;96.16;98697.56;5088320;28;20111;-78
2021/01/31 08:27:38;;;;;;;31.83;28.27;;;;;;;6.39;96.41;98695.75;5078462;28;20506;-79
2021/01/31 08:31:04;;;;;;;28.20;25.33;;;;;;;6.47;96.42;98695.81;5079000;28;20051;-72
2021/01/31 08:34:10;;;;;;;27.63;24.67;;;;;;;6.53;96.35;98690.75;5073815;28;20083;-78
2021/01/31 08:37:23;;;;;;;55.03;46.08;;;;;;;6.58;96.12;98695.63;5075210;28;20048;-80
2021/01/31 08:40:28;;;;;;;50.88;44.47;;;;;;;6.66;96.04;98701.03;5094253;28;20047;-79
2021/01/31 08:43:48;;;;;;;73.68;52.88;;;;;;;6.74;95.74;98695.78;5094111;28;20055;-79
2021/01/31 08:47:01;;;;;;;35.42;27.75;;;;;;;6.80;95.35;98713.84;5093073;28;20055;-76
2021/01/31 08:50:06;;;;;;;25.00;22.50;;;;;;;6.83;95.25;98710.88;5082194;28;20150;-81
2021/01/31 08:53:12;;;;;;;23.38;20.98;;;;;;;6.89;95.08;98715.59;5081307;28;20447;-83
2021/01/31 08:56:32;;;;;;;24.95;22.35;;;;;;;6.81;94.95;98723.53;5089442;28;20387;-75
2021/01/31 08:59:44;;;;;;;24.33;21.75;;;;;;;6.78;94.97;98715.84;5074364;28;20052;-75
2021/01/31 09:02:48;;;;;;;25.83;23.17;;;;;;;6.84;95.05;98719.72;5071065;28;20071;-72
2021/01/31 09:05:52;;;;;;;24.98;22.38;;;;;;;6.96;94.89;98727.34;5070530;28;20051;-73
2021/01/31 09:08:56;;;;;;;24.30;21.67;;;;;;;7.01;94.54;98732.25;5072053;28;20043;-73
2021/01/31 09:12:07;;;;;;;24.00;21.50;;;;;;;7.02;94.72;98732.06;5083419;28;20048;-73
2021/01/31 09:15:14;;;;;;;23.00;20.55;;;;;;;7.09;94.39;98732.28;5082732;28;20055;-73
2021/01/31 09:18:21;;;;;;;23.05;20.73;;;;;;;7.13;94.16;98739.84;5074155;28;20056;-72
2021/01/31 09:21:28;;;;;;;22.02;19.88;;;;;;;7.14;93.91;98743.34;5074109;28;20044;-72
2021/01/31 09:24:38;;;;;;;21.65;19.35;;;;;;;7.13;94.02;98741.69;5073844;28;20050;-70
2021/01/31 09:28:09;;;;;;;22.73;20.30;;;;;;;7.20;93.93;98746.25;5073870;28;20047;-71
2021/01/31 09:31:15;;;;;;;21.38;19.23;;;;;;;7.27;93.69;98753.66;5073674;28;20048;-71
2021/01/31 09:34:22;;;;;;;21.52;19.42;;;;;;;7.26;93.79;98752.78;5072805;28;20048;-72
2021/01/31 09:37:29;;;;;;;20.92;18.92;;;;;;;7.33;93.41;98743.22;5072818;28;20056;-71
2021/01/31 09:40:36;;;;;;;22.73;20.42;;;;;;;7.34;93.30;98747.53;5084129;28;20051;-71
2021/01/31 09:43:43;;;;;;;25.50;22.35;;;;;;;7.26;93.71;98754.66;5073599;28;20068;-72
2021/01/31 09:46:48;;;;;;;23.15;20.75;;;;;;;7.22;93.87;98762.13;5073680;28;20055;-71
2021/01/31 09:49:56;;;;;;;22.13;19.92;;;;;;;7.27;93.82;98765.16;5073332;28;20051;-71
2021/01/31 09:53:01;;;;;;;22.77;20.48;;;;;;;7.27;93.72;98780.31;5073770;28;20071;-70
2021/01/31 09:56:29;;;;;;;22.65;20.25;;;;;;;7.25;93.88;98775.16;5073565;28;20055;-72
2021/01/31 09:59:37;;;;;;;23.52;20.13;;;;;;;7.24;94.38;98784.13;5073681;28;20044;-72
2021/01/31 10:02:41;;;;;;;21.00;18.80;;;;;;;7.29;94.22;98783.69;5072615;28;20052;-71
2021/01/31 10:05:46;;;;;;;23.05;20.67;;;;;;;7.31;94.31;98792.41;5073359;28;20040;-71
2021/01/31 10:08:57;;;;;;;21.08;18.85;;;;;;;7.40;93.94;98786.13;5073344;28;20044;-71
2021/01/31 10:12:27;;;;;;;22.70;20.38;;;;;;;7.50;94.13;98786.91;5073032;28;20051;-72
2021/01/31 10:15:42;;;;;;;22.63;20.23;;;;;;;7.65;93.76;98788.84;5073273;28;20498;-72
2021/01/31 10:18:46;;;;;;;27.23;24.33;;;;;;;7.76;93.04;98790.44;5073374;28;20051;-72
2021/01/31 10:21:55;;;;;;;23.25;20.75;;;;;;;7.84;92.65;98790.50;5072494;28;20055;-71
2021/01/31 10:24:59;;;;;;;22.52;19.90;;;;;;;7.94;92.19;98780.56;5073425;28;20043;-72
2021/01/31 10:28:05;;;;;;;21.48;19.17;;;;;;;7.97;92.03;98779.41;5076192;28;20044;-72
2021/01/31 10:31:32;;;;;;;20.40;18.25;;;;;;;7.99;91.85;98777.41;5076853;28;20047;-71
2021/01/31 10:34:41;;;;;;;19.80;17.83;;;;;;;8.08;91.02;98781.81;5076627;28;20395;-72
2021/01/31 10:37:46;;;;;;;18.35;16.50;;;;;;;8.18;91.23;98771.84;5086768;28;20052;-72
2021/01/31 10:40:51;;;;;;;19.73;17.58;;;;;;;8.20;90.49;98775.19;5076586;28;20060;-72
2021/01/31 10:44:04;;;;;;;18.60;16.77;;;;;;;8.15;90.39;98774.84;5076635;28;20056;-72
2021/01/31 10:47:08;;;;;;;19.13;17.23;;;;;;;8.15;91.17;98778.34;5076593;28;20056;-72
2021/01/31 10:50:14;;;;;;;18.90;17.02;;;;;;;8.15;91.16;98773.00;5076393;28;20055;-72
2021/01/31 10:53:18;;;;;;;18.10;16.30;;;;;;;7.97;91.21;98774.06;5063991;28;20071;-72
2021/01/31 10:56:23;;;;;;;20.45;17.98;;;;;;;7.97;91.92;98774.91;5076305;28;20051;-72
2021/01/31 10:59:27;;;;;;;18.38;16.45;;;;;;;8.01;91.99;98770.94;5076286;28;20400;-72
2021/01/31 11:02:31;;;;;;;18.85;16.95;;;;;;;7.97;91.40;98772.25;5076511;28;20047;-71
2021/01/31 11:05:35;;;;;;;19.92;17.92;;;;;;;7.82;92.07;98774.66;5076151;28;20486;-71
2021/01/31 11:08:40;;;;;;;19.88;17.95;;;;;;;7.69;92.13;98771.53;5076240;28;20106;-71
2021/01/31 11:11:45;;;;;;;21.85;19.55;;;;;;;7.62;92.63;98774.97;5075853;28;20134;-71
2021/01/31 11:14:49;;;;;;;22.92;20.50;;;;;;;7.58;93.44;98770.94;5075427;28;20047;-71
2021/01/31 11:17:53;;;;;;;22.48;20.38;;;;;;;7.63;93.05;98781.97;5075617;28;20043;-72
2021/01/31 11:20:58;;;;;;;25.65;22.75;;;;;;;7.56;93.60;98787.09;5075687;28;20059;-71
2021/01/31 11:24:03;;;;;;;24.73;22.13;;;;;;;7.60;93.90;98783.16;5075708;28;20056;-71
2021/01/31 11:27:08;;;;;;;25.27;22.67;;;;;;;7.61;93.80;98779.47;5075617;28;20047;-72
2021/01/31 11:30:13;;;;;;;27.10;24.17;;;;;;;7.55;94.03;98784.59;5074677;28;20499;-71
2021/01/31 11:33:17;;;;;;;26.63;23.85;;;;;;;7.65;94.29;98790.69;5075521;28;20044;-71
2021/01/31 11:36:23;;;;;;;25.85;23.25;;;;;;;7.62;93.99;98796.34;5074629;28;20051;-71
2021/01/31 11:39:27;;;;;;;25.25;21.90;;;;;;;7.53;94.35;98792.75;5075270;28;20040;-71
2021/01/31 11:42:31;;;;;;;24.52;22.05;;;;;;;7.59;94.19;98785.97;5086187;28;20442;-72
2021/01/31 11:45:36;;;;;;;25.70;21.92;;;;;;;7.63;94.50;98792.66;5074497;28;20055;-71
2021/01/31 11:48:40;;;;;;;24.85;22.25;;;;;;;7.65;94.25;98801.38;5075278;28;20358;-72
2021/01/31 11:51:44;;;;;;;24.52;21.80;;;;;;;7.63;94.24;98788.16;5075120;28;20392;-71
2021/01/31 11:54:49;;;;;;;24.27;20.90;;;;;;;7.65;94.19;98783.50;5074998;28;20064;-71
2021/01/31 11:57:53;;;;;;;25.92;23.17;;;;;;;7.69;94.45;98786.72;5075056;28;20052;-72
2021/01/31 12:00:58;;;;;;;24.10;21.67;;;;;;;7.69;94.36;98789.38;5075042;28;20056;-71
2021/01/31 12:04:02;;;;;;;23.45;21.05;;;;;;;7.67;94.70;98794.91;5074930;28;20075;-71
2021/01/31 12:07:07;;;;;;;23.23;20.55;;;;;;;7.72;94.53;98792.59;5074912;28;20063;-72
2021/01/31 12:10:13;;;;;;;23.98;21.48;;;;;;;7.74;95.03;98789.75;5074542;28;20071;-72
2021/01/31 12:13:18;;;;;;;22.63;20.23;;;;;;;7.77;94.78;98790.31;5074761;28;20056;-72
2021/01/31 12:16:22;;;;;;;23.10;19.85;;;;;;;7.85;94.35;98786.84;5074658;28;20047;-72
2021/01/31 12:19:27;;;;;;;28.27;21.45;;;;;;;7.87;94.78;98782.19;5074610;28;20055;-71
2021/01/31 12:22:31;;;;;;;60.42;45.05;;;;;;;7.87;94.81;98783.00;5074541;28;20052;-72
2021/01/31 12:25:35;;;;;;;102.18;77.60;;;;;;;7.98;94.40;98781.06;5085435;28;20052;-72
2021/01/31 12:28:39;;;;;;;55.53;46.22;;;;;;;8.05;94.52;98784.81;5074531;28;20055;-72
2021/01/31 12:31:44;;;;;;;29.75;25.50;;;;;;;8.07;94.07;98775.66;5074229;28;20491;-72
2021/01/31 12:34:49;;;;;;;23.67;20.60;;;;;;;8.13;93.90;98787.53;5074406;28;20055;-72
2021/01/31 12:37:54;;;;;;;25.95;19.30;;;;;;;8.13;93.46;98787.53;5054608;28;20052;-72
2021/01/31 12:40:58;;;;;;;33.08;21.92;;;;;;;8.07;93.98;98772.13;5054410;28;20056;-72
2021/01/31 12:44:04;;;;;;;29.05;23.38;;;;;;;8.03;94.35;98768.09;5054267;28;20055;-72
2021/01/31 12:47:12;;;;;;;27.77;23.63;;;;;;;8.09;94.42;98765.63;5060860;28;20055;-73
2021/01/31 12:50:19;;;;;;;31.10;27.75;;;;;;;8.10;94.95;98759.28;5066226;28;20052;-72
2021/01/31 12:53:23;;;;;;;27.50;24.65;;;;;;;8.14;94.45;98757.16;5054024;28;20044;-72
2021/01/31 12:56:27;;;;;;;28.40;25.17;;;;;;;8.11;94.80;98760.13;5062782;28;20052;-76
2021/01/31 12:59:31;;;;;;;31.67;25.77;;;;;;;8.15;94.76;98761.47;5053583;28;20400;-74
2021/01/31 13:02:37;;;;;;;;;;;;;;;8.11;95.00;98765.47;5054116;28;20056;-75
2021/01/31 13:05:42;;;;;;;23.25;20.85;;;;;;;8.17;95.00;98763.00;5053806;28;19917;-76
2021/01/31 13:08:47;;;;;;;22.40;20.10;;;;;;;8.07;94.68;98753.44;5053527;28;20040;-74
2021/01/31 13:11:51;;;;;;;25.33;20.35;;;;;;;8.01;95.08;98754.06;5069958;28;20051;-75
2021/01/31 13:14:55;;;;;;;29.52;22.40;;;;;;;7.96;95.18;98762.53;5074008;28;20052;-77
2021/01/31 13:18:00;;;;;;;23.25;20.73;;;;;;;7.87;95.60;98768.84;5061687;28;20502;-73
2021/01/31 13:21:04;;;;;;;21.20;18.98;;;;;;;7.94;96.41;98774.38;5072990;28;20487;-76
2021/01/31 13:24:09;;;;;;;20.27;18.27;;;;;;;7.97;96.34;98780.25;5073263;28;20056;-76
2021/01/31 13:27:13;;;;;;;22.55;19.00;;;;;;;8.02;96.53;98785.13;5074147;28;20051;-77
2021/01/31 13:30:20;;;;;;;21.08;18.30;;;;;;;8.11;96.33;98786.84;5073543;28;20045;-77
2021/01/31 13:33:25;;;;;;;21.02;17.50;;;;;;;8.23;96.27;98785.59;5074023;28;20487;-71
2021/01/31 13:36:29;;;;;;;20.48;16.38;;;;;;;8.26;95.76;98786.16;5082645;28;20514;-75
2021/01/31 13:39:34;;;;;;;17.15;15.35;;;;;;;8.30;95.51;98778.63;5104989;28;20051;-75
2021/01/31 13:42:41;;;;;;;19.30;15.50;;;;;;;8.22;95.47;98789.28;5093996;28;20055;-72
2021/01/31 13:45:46;;;;;;;18.85;15.80;;;;;;;8.21;94.73;98791.09;5094172;28;20051;-73
2021/01/31 13:48:50;;;;;;;20.00;16.90;;;;;;;8.18;95.17;98793.25;5093177;28;20055;-76
2021/01/31 13:51:55;;;;;;;19.05;16.92;;;;;;;8.24;95.32;98796.13;5093882;28;20051;-76
2021/01/31 13:54:58;;;;;;;;;;;;;;;8.17;95.60;98797.72;5089435;28;20062;-76
2021/01/31 13:58:03;;;;;;;17.97;16.13;;;;;;;8.24;95.72;98792.63;5092419;28;19916;-77
2021/01/31 14:01:09;;;;;;;19.27;17.17;;;;;;;8.27;95.36;98793.16;5094728;28;20039;-72
2021/01/31 14:04:19;;;;;;;19.65;17.63;;;;;;;8.27;96.00;98789.66;5095177;28;20493;-75
2021/01/31 14:07:24;;;;;;;23.33;20.83;;;;;;;8.22;96.36;98790.09;5095107;28;20106;-75
2021/01/31 14:10:28;;;;;;;24.70;21.33;;;;;;;8.25;96.29;98789.78;5096277;28;20055;-74
2021/01/31 14:13:40;;;;;;;82.78;63.20;;;;;;;8.24;96.63;98792.63;5094836;28;20051;-73
2021/01/31 14:16:44;;;;;;;42.78;36.20;;;;;;;8.19;96.64;98801.13;5095276;28;20047;-75
2021/01/31 14:19:48;;;;;;;23.17;20.02;;;;;;;8.16;96.53;98801.44;5087263;28;20055;-76
2021/01/31 14:22:53;;;;;;;21.58;19.33;;;;;;;8.04;97.34;98797.34;5095542;28;20498;-75
2021/01/31 14:25:57;;;;;;;20.75;18.60;;;;;;;8.03;97.11;98800.16;5097178;28;20391;-77
2021/01/31 14:29:02;;;;;;;20.98;18.75;;;;;;;7.97;97.34;98804.31;5102356;28;20040;-72
2021/01/31 14:32:06;;;;;;;22.65;19.67;;;;;;;7.98;98.08;98802.44;5098646;28;20048;-73
2021/01/31 14:35:19;;;;;;;22.92;20.35;;;;;;;7.90;98.36;98795.22;5096946;28;20043;-72
2021/01/31 14:38:24;;;;;;;22.77;20.15;;;;;;;7.92;98.41;98798.59;5096014;28;20043;-71
2021/01/31 14:41:28;;;;;;;22.45;20.13;;;;;;;7.91;98.83;98804.06;5096045;28;20040;-81
2021/01/31 14:44:32;;;;;;;;;;;;;;;7.87;98.89;98803.56;5080192;28;20039;-74